Time;durP1;ratioP1;P1;durP2;ratioP2;P2;SDS_P1;SDS_P2;PMS_P1;PMS_P2;Temp;Humidity;BMP_temperature;BMP_pressure;BME280_temperature;BME280_humidity;BME280_pressure;Samples;Min_cycle;Max_cycle;Signal;HPM_P1;HPM_P2
2023/12/27 00:00:46;;;;;;;21.10;3.15;;;;;;;6.77;100.00;100326.81;6091818;23;20084;-91
2023/12/27 00:03:11;;;;;;;22.65;3.50;;;;;;;6.81;100.00;100310.41;6091727;23;19994;-90
2023/12/27 00:05:37;;;;;;;21.27;3.95;;;;;;;6.78;100.00;100300.28;6091542;23;20390;-92
2023/12/27 00:08:02;;;;;;;23.85;5.75;;;;;;;6.81;100.00;100299.31;6092047;23;20442;-91
2023/12/27 00:10:28;;;;;;;19.15;3.20;;;;;;;6.85;100.00;100293.97;6091726;23;20003;-90
2023/12/27 00:12:53;;;;;;;21.25;4.30;;;;;;;6.88;100.00;100289.59;6092009;23;20041;-91
2023/12/27 00:15:18;;;;;;;14.60;3.60;;;;;;;6.80;100.00;100277.97;6091820;23;20018;-90
2023/12/27 00:17:44;;;;;;;13.05;3.42;;;;;;;6.79;100.00;100272.88;6091613;23;20002;-91
2023/12/27 00:20:10;;;;;;;11.77;2.88;;;;;;;6.92;100.00;100262.91;6091936;23;20077;-91
2023/12/27 00:22:35;;;;;;;21.15;4.00;;;;;;;6.85;100.00;100250.38;6091575;23;20014;-90
2023/12/27 00:25:01;;;;;;;15.70;3.78;;;;;;;6.93;100.00;100249.19;6091823;23;20326;-90
2023/12/27 00:27:26;;;;;;;13.55;3.80;;;;;;;6.98;100.00;100242.13;6091729;23;20116;-91
2023/12/27 00:29:52;;;;;;;21.00;3.55;;;;;;;6.86;100.00;100241.75;6091515;23;20003;-91
2023/12/27 00:32:17;;;;;;;16.48;3.92;;;;;;;6.90;100.00;100233.91;6091724;23;20480;-92
2023/12/27 00:34:42;;;;;;;16.02;3.47;;;;;;;6.89;100.00;100232.25;6091733;23;20444;-92
2023/12/27 00:37:09;;;;;;;11.27;3.25;;;;;;;6.95;100.00;100242.22;6091794;23;20007;-92
2023/12/27 00:39:35;;;;;;;15.27;4.03;;;;;;;6.86;100.00;100236.63;6091840;23;20002;-92
2023/12/27 00:42:00;;;;;;;13.20;4.55;;;;;;;6.86;100.00;100221.25;6092150;23;20010;-91
2023/12/27 00:44:26;;;;;;;11.68;3.35;;;;;;;6.85;100.00;100222.16;6091573;23;19998;-92
2023/12/27 00:46:51;;;;;;;10.48;3.80;;;;;;;6.85;100.00;100219.59;6091539;23;20006;-93
2023/12/27 00:49:16;;;;;;;13.80;3.95;;;;;;;6.90;100.00;100226.22;6090169;23;20073;-92
2023/12/27 00:51:42;;;;;;;10.77;3.67;;;;;;;6.97;100.00;100207.06;6091797;23;20006;-92
2023/12/27 00:54:07;;;;;;;8.55;3.28;;;;;;;7.00;100.00;100209.53;6089980;23;20358;-92
2023/12/27 00:56:33;;;;;;;15.23;3.60;;;;;;;7.07;100.00;100203.19;6090261;23;20014;-93
2023/12/27 00:58:59;;;;;;;8.95;3.30;;;;;;;7.05;100.00;100192.19;6091992;23;20006;-93
2023/12/27 01:01:24;;;;;;;9.80;3.20;;;;;;;7.06;100.00;100194.66;6092045;23;20483;-93
2023/12/27 01:03:49;;;;;;;18.77;4.88;;;;;;;7.00;100.00;100184.69;6090017;23;20390;-92
2023/12/27 01:06:15;;;;;;;11.45;3.75;;;;;;;7.03;100.00;100186.28;6091434;23;20013;-93
2023/12/27 01:08:40;;;;;;;7.45;3.25;;;;;;;7.10;100.00;100159.44;6090113;23;20020;-93
2023/12/27 01:11:06;;;;;;;6.68;3.58;;;;;;;7.08;100.00;100156.09;6090329;23;20021;-94
2023/12/27 01:13:31;;;;;;;7.70;3.90;;;;;;;7.08;100.00;100154.34;6091559;23;20034;-94
2023/12/27 01:15:59;;;;;;;8.85;4.97;;;;;;;7.13;100.00;100145.63;6090108;23;20021;-94
2023/12/27 01:18:24;;;;;;;11.88;4.68;;;;;;;7.14;100.00;100150.66;6091823;23;19995;-93
2023/12/27 01:20:50;;;;;;;5.47;3.80;;;;;;;7.11;100.00;100148.25;6090581;23;20018;-93
2023/12/27 01:23:15;;;;;;;8.00;4.45;;;;;;;7.22;100.00;100135.75;6091219;23;19998;-93
2023/12/27 01:25:40;;;;;;;12.50;4.30;;;;;;;7.18;100.00;100134.22;6091128;23;20010;-94
2023/12/27 01:28:06;;;;;;;6.10;4.47;;;;;;;7.23;100.00;100129.69;6091204;23;20030;-93
2023/12/27 01:30:31;;;;;;;6.70;4.95;;;;;;;7.18;100.00;100129.09;6091023;23;20006;-93
2023/12/27 01:32:57;;;;;;;6.88;3.92;;;;;;;7.16;100.00;100120.63;6092147;23;20375;-92
2023/12/27 01:35:23;;;;;;;10.05;4.97;;;;;;;7.19;100.00;100115.34;6090930;23;20017;-92
2023/12/27 01:37:48;;;;;;;5.53;4.47;;;;;;;7.31;100.00;100118.22;6090922;23;20077;-92
2023/12/27 01:40:15;;;;;;;8.15;5.38;;;;;;;7.32;100.00;100099.34;6090912;23;20006;-93
2023/12/27 01:42:40;;;;;;;7.60;4.32;;;;;;;7.31;100.00;100092.53;6092762;23;20077;-94
2023/12/27 01:45:06;;;;;;;5.13;3.90;;;;;;;7.31;100.00;100087.41;6090578;23;20433;-92
2023/12/27 01:47:33;;;;;;;6.60;4.00;;;;;;;7.36;100.00;100075.19;6090842;23;20030;-94
2023/12/27 01:49:59;;;;;;;4.93;3.78;;;;;;;7.37;100.00;100069.16;6091025;23;20378;-93
2023/12/27 01:52:25;;;;;;;6.85;4.57;;;;;;;7.37;100.00;100061.44;6092525;23;20015;-94
2023/12/27 01:54:52;;;;;;;7.70;3.88;;;;;;;7.40;100.00;100069.81;6091061;23;20049;-93
2023/12/27 01:57:18;;;;;;;7.97;5.00;;;;;;;7.37;100.00;100061.44;6092604;23;20006;-93
2023/12/27 01:59:45;;;;;;;11.43;4.22;;;;;;;7.41;100.00;100065.50;6091111;23;20006;-93
2023/12/27 02:02:11;;;;;;;8.65;4.70;;;;;;;7.42;100.00;100054.34;6091182;23;19998;-93
2023/12/27 02:04:36;;;;;;;8.45;3.80;;;;;;;7.45;100.00;100049.03;6091124;23;20003;-94
2023/12/27 02:07:02;;;;;;;5.28;4.22;;;;;;;7.47;100.00;100042.09;6090683;23;20066;-93
2023/12/27 02:09:28;;;;;;;8.15;3.90;;;;;;;7.56;100.00;100044.22;6091167;23;20011;-94
2023/12/27 02:11:53;;;;;;;5.85;4.53;;;;;;;7.55;100.00;100044.28;6092768;23;20006;-93
2023/12/27 02:14:19;;;;;;;7.57;3.63;;;;;;;7.61;100.00;100051.69;6091036;23;20319;-95
2023/12/27 02:16:44;;;;;;;6.55;3.85;;;;;;;7.62;100.00;100041.31;6091107;23;20018;-96
2023/12/27 02:19:18;;;;;;;3.92;3.53;;;;;;;7.69;100.00;100037.50;6091217;23;20433;-94
2023/12/27 02:21:44;;;;;;;10.20;3.65;;;;;;;7.74;100.00;100031.31;6091300;23;20333;-94
2023/12/27 02:24:14;;;;;;;5.25;3.83;;;;;;;7.76;100.00;100032.06;6091205;23;20089;-93
2023/12/27 02:26:40;;;;;;;4.43;2.95;;;;;;;7.80;100.00;100030.97;6090980;23;20010;-93
2023/12/27 02:29:05;;;;;;;4.47;3.83;;;;;;;7.80;100.00;100018.13;6091203;23;20009;-95
2023/12/27 02:31:30;;;;;;;5.97;4.35;;;;;;;7.83;100.00;100010.28;6091201;23;20002;-94
2023/12/27 02:33:56;;;;;;;6.40;3.80;;;;;;;7.88;100.00;100003.16;6093208;23;20037;-94
2023/12/27 02:36:21;;;;;;;9.20;4.00;;;;;;;7.90;100.00;99999.59;6092014;23;20373;-94
2023/12/27 02:38:47;;;;;;;5.25;3.47;;;;;;;7.92;100.00;99995.22;6091725;23;20003;-94
2023/12/27 02:41:12;;;;;;;6.53;4.07;;;;;;;7.96;100.00;99983.00;6091622;23;20038;-94
2023/12/27 02:43:37;;;;;;;7.13;4.35;;;;;;;7.98;100.00;99985.50;6091836;23;20003;-94
2023/12/27 02:46:03;;;;;;;6.85;4.28;;;;;;;8.00;100.00;99963.94;6091073;23;20060;-92
2023/12/27 02:48:28;;;;;;;10.85;4.90;;;;;;;8.06;100.00;99963.59;6091149;23;20009;-94
2023/12/27 02:50:54;;;;;;;14.85;4.95;;;;;;;8.12;100.00;99960.72;6091323;23;20006;-93
2023/12/27 02:53:19;;;;;;;11.77;4.90;;;;;;;8.19;100.00;99953.47;6091844;23;20005;-94
2023/12/27 02:55:44;;;;;;;7.93;4.35;;;;;;;8.26;100.00;99948.81;6091696;23;20006;-94
2023/12/27 02:58:10;;;;;;;14.02;4.30;;;;;;;8.29;100.00;99935.78;6091672;23;20010;-94
2023/12/27 03:00:37;;;;;;;9.30;3.92;;;;;;;8.32;100.00;99935.66;6091534;23;20033;-95
2023/12/27 03:03:03;;;;;;;11.98;4.32;;;;;;;8.39;100.00;99942.09;6091959;23;20068;-94
2023/12/27 03:05:28;;;;;;;14.65;4.45;;;;;;;8.44;100.00;99939.31;6091729;23;20034;-95
2023/12/27 03:07:54;;;;;;;8.82;4.32;;;;;;;8.47;100.00;99939.94;6092393;23;20029;-94
2023/12/27 03:10:19;;;;;;;14.15;3.75;;;;;;;8.49;100.00;99943.25;6092188;23;20006;-96
2023/12/27 03:12:44;;;;;;;15.88;4.40;;;;;;;8.56;100.00;99947.16;6092328;23;20034;-94
2023/12/27 03:15:10;;;;;;;15.68;4.45;;;;;;;8.62;100.00;99937.41;6092119;23;20003;-95
2023/12/27 03:17:35;;;;;;;19.92;3.47;;;;;;;8.64;100.00;99938.16;6092320;23;20007;-95
2023/12/27 03:20:01;;;;;;;14.90;4.13;;;;;;;8.69;100.00;99931.00;6092623;23;20447;-95
2023/12/27 03:22:26;;;;;;;14.20;3.63;;;;;;;8.74;100.00;99923.84;6092771;23;20039;-95
2023/12/27 03:24:52;;;;;;;15.88;4.10;;;;;;;8.82;100.00;99925.97;6092956;23;20049;-96
2023/12/27 03:27:17;;;;;;;11.93;3.88;;;;;;;8.84;100.00;99914.66;6092918;23;20011;-95
2023/12/27 03:29:43;;;;;;;19.98;5.07;;;;;;;8.89;100.00;99899.78;6092360;23;20447;-95
2023/12/27 03:32:08;;;;;;;10.93;3.03;;;;;;;8.91;100.00;99884.25;6092205;23;20011;-94
2023/12/27 03:34:33;;;;;;;15.55;3.85;;;;;;;8.97;100.00;99874.44;6092405;23;20069;-95
2023/12/27 03:36:59;;;;;;;17.85;3.80;;;;;;;8.97;100.00;99863.28;6091814;23;19999;-94
2023/12/27 03:39:24;;;;;;;17.75;3.83;;;;;;;9.03;100.00;99877.56;6092199;23;20030;-95
2023/12/27 03:41:50;;;;;;;15.73;4.25;;;;;;;9.00;100.00;99874.25;6091999;23;20010;-94
2023/12/27 03:44:15;;;;;;;20.85;3.78;;;;;;;9.04;100.00;99866.31;6092363;23;20056;-95
2023/12/27 03:46:40;;;;;;;13.45;3.50;;;;;;;9.03;100.00;99867.25;6092734;23;20030;-96
2023/12/27 03:49:06;;;;;;;12.65;4.10;;;;;;;9.09;100.00;99856.56;6092817;23;20010;-95
2023/12/27 03:51:32;;;;;;;27.42;4.63;;;;;;;9.09;100.00;99825.69;6092586;23;20345;-96
2023/12/27 03:53:58;;;;;;;16.88;3.58;;;;;;;9.04;100.00;99812.28;6092671;23;20025;-95
2023/12/27 03:56:23;;;;;;;16.48;3.75;;;;;;;9.13;100.00;99815.09;6092257;23;20010;-96
2023/12/27 03:58:49;;;;;;;22.30;4.28;;;;;;;9.06;100.00;99805.28;6092056;23;20011;-95
2023/12/27 04:01:20;;;;;;;19.25;4.50;;;;;;;9.10;100.00;99805.00;6091625;23;20314;-95
2023/12/27 04:03:46;;;;;;;;;;;;;;;9.19;100.00;99801.03;6092536;23;20014;-94
2023/12/27 04:06:16;;;;;;;19.25;4.10;;;;;;;9.15;100.00;99784.94;6244883;22;20271;-94
2023/12/27 04:08:42;;;;;;;16.27;3.40;;;;;;;9.18;100.00;99794.22;6091682;23;20011;-94
2023/12/27 04:11:07;;;;;;;14.20;3.70;;;;;;;9.18;100.00;99796.81;6091505;23;20016;-93
2023/12/27 04:13:33;;;;;;;23.92;4.25;;;;;;;9.20;100.00;99813.00;6091592;23;20011;-94
2023/12/27 04:15:58;;;;;;;21.90;4.07;;;;;;;9.17;100.00;99805.47;6090759;23;20452;-94
2023/12/27 04:18:23;;;;;;;19.77;5.22;;;;;;;9.18;100.00;99814.84;6091446;23;20077;-94
2023/12/27 04:20:49;;;;;;;20.30;5.18;;;;;;;9.15;100.00;99812.44;6091172;23;20006;-93
2023/12/27 04:23:14;;;;;;;24.25;5.30;;;;;;;9.22;100.00;99813.72;6091440;23;20444;-94
2023/12/27 04:25:39;;;;;;;21.95;4.13;;;;;;;9.22;100.00;99795.69;6090752;23;20006;-94
2023/12/27 04:28:05;;;;;;;17.08;3.75;;;;;;;9.27;100.00;99793.66;6090748;23;20030;-93
2023/12/27 04:30:30;;;;;;;19.13;7.07;;;;;;;9.33;100.00;99803.56;6090927;23;20325;-93
2023/12/27 04:32:55;;;;;;;23.60;4.55;;;;;;;9.40;100.00;99798.88;6092379;23;20002;-94
2023/12/27 04:35:21;;;;;;;24.92;4.95;;;;;;;9.37;100.00;99787.00;6091184;23;20145;-93
2023/12/27 04:37:46;;;;;;;22.80;5.13;;;;;;;9.37;100.00;99779.28;6090814;23;20017;-93
2023/12/27 04:40:12;;;;;;;16.85;4.15;;;;;;;9.44;100.00;99779.72;6090960;23;20007;-93
2023/12/27 04:42:37;;;;;;;21.17;5.25;;;;;;;9.40;100.00;99763.63;6090751;23;20417;-93
2023/12/27 04:45:03;;;;;;;18.73;4.43;;;;;;;9.40;100.00;99758.47;6090823;23;20006;-93
2023/12/27 04:47:28;;;;;;;19.15;4.65;;;;;;;9.46;100.00;99761.59;6090946;23;20007;-93
2023/12/27 04:49:53;;;;;;;26.02;4.65;;;;;;;9.45;100.00;99750.47;6092361;23;20464;-91
2023/12/27 04:52:19;;;;;;;20.60;4.60;;;;;;;9.43;100.00;99752.31;6092193;23;20413;-94
2023/12/27 04:54:44;;;;;;;19.75;4.07;;;;;;;9.45;100.00;99741.91;6090281;23;20002;-94
2023/12/27 04:57:09;;;;;;;27.13;4.80;;;;;;;9.41;100.00;99726.66;6090951;23;20462;-93
2023/12/27 04:59:35;;;;;;;24.80;4.88;;;;;;;9.48;100.00;99713.38;6090877;23;20009;-93
2023/12/27 05:02:01;;;;;;;21.20;4.82;;;;;;;9.48;100.00;99723.69;6090556;23;20508;-94
2023/12/27 05:04:26;;;;;;;17.40;4.68;;;;;;;9.47;100.00;99709.16;6090465;23;20436;-93
2023/12/27 05:06:51;;;;;;;17.33;4.10;;;;;;;9.51;100.00;99692.56;6090330;23;20314;-93
2023/12/27 05:09:17;;;;;;;20.08;4.82;;;;;;;9.54;100.00;99687.25;6090638;23;20080;-94
2023/12/27 05:11:43;;;;;;;14.60;5.03;;;;;;;9.59;100.00;99687.75;6090398;23;20010;-93
2023/12/27 05:14:08;;;;;;;20.45;5.20;;;;;;;9.64;100.00;99680.56;6091572;23;20014;-93
2023/12/27 05:16:33;;;;;;;21.63;4.45;;;;;;;9.69;100.00;99663.03;6090203;23;20445;-94
2023/12/27 05:18:59;;;;;;;16.45;4.20;;;;;;;9.66;100.00;99655.50;6091676;23;20077;-93
2023/12/27 05:21:24;;;;;;;19.88;4.80;;;;;;;9.70;100.00;99656.13;6090121;23;20057;-94
2023/12/27 05:23:49;;;;;;;18.05;4.28;;;;;;;9.75;100.00;99664.38;6091898;23;20390;-93
2023/12/27 05:26:15;;;;;;;17.50;3.67;;;;;;;9.77;100.00;99647.88;6089914;23;20003;-92
2023/12/27 05:28:40;;;;;;;17.02;4.43;;;;;;;9.74;100.00;99634.38;6091402;23;20010;-93
2023/12/27 05:31:05;;;;;;;28.20;4.25;;;;;;;9.73;100.00;99625.84;6090151;23;20055;-93
2023/12/27 05:33:31;;;;;;;16.90;4.80;;;;;;;9.78;100.00;99623.78;6091506;23;20009;-93
2023/12/27 05:35:57;;;;;;;15.35;4.22;;;;;;;9.80;100.00;99609.03;6089864;23;20006;-93
2023/12/27 05:38:22;;;;;;;12.25;3.72;;;;;;;9.84;100.00;99607.06;6091793;23;20376;-93
2023/12/27 05:40:48;;;;;;;21.67;4.00;;;;;;;9.83;100.00;99590.78;6090316;23;20002;-92
2023/12/27 05:43:14;;;;;;;23.50;5.18;;;;;;;9.89;100.00;99591.28;6090177;23;20500;-93
2023/12/27 05:45:39;;;;;;;16.40;3.67;;;;;;;9.90;100.00;99585.19;6089783;23;20082;-93
2023/12/27 05:48:05;;;;;;;20.02;3.97;;;;;;;9.91;100.00;99592.00;6091538;23;20516;-93
2023/12/27 05:50:30;;;;;;;15.38;3.55;;;;;;;9.95;100.00;99581.41;6090053;23;20009;-92
2023/12/27 05:52:56;;;;;;;18.50;4.15;;;;;;;9.95;100.00;99583.13;6089994;23;20003;-92
2023/12/27 05:55:21;;;;;;;14.73;4.65;;;;;;;9.94;100.00;99599.53;6089848;23;20014;-93
2023/12/27 05:57:46;;;;;;;21.83;3.90;;;;;;;9.98;100.00;99567.47;6089626;23;20006;-92
2023/12/27 06:00:15;;;;;;;30.83;5.57;;;;;;;10.02;100.00;99586.94;6089890;23;20040;-93
2023/12/27 06:02:41;;;;;;;13.13;3.47;;;;;;;10.04;100.00;99569.59;6089876;23;20014;-92
2023/12/27 06:05:07;;;;;;;21.92;4.55;;;;;;;10.07;100.00;99577.13;6090662;23;20006;-92
2023/12/27 06:07:33;;;;;;;18.25;4.03;;;;;;;10.07;100.00;99561.66;6090876;23;20022;-93
2023/12/27 06:09:58;;;;;;;18.05;4.65;;;;;;;10.14;100.00;99567.22;6092418;23;20066;-93
2023/12/27 06:12:23;;;;;;;16.23;4.00;;;;;;;10.14;100.00;99541.44;6092730;23;20009;-92
2023/12/27 06:14:49;;;;;;;13.93;5.28;;;;;;;10.15;100.00;99531.03;6090618;23;20284;-93
2023/12/27 06:17:14;;;;;;;19.13;4.75;;;;;;;10.13;100.00;99525.13;6092592;23;20074;-92
2023/12/27 06:19:39;;;;;;;26.83;6.00;;;;;;;10.24;100.00;99542.44;6092985;23;20409;-93
2023/12/27 06:22:05;;;;;;;17.85;4.70;;;;;;;10.26;100.00;99525.91;6092401;23;20003;-93
2023/12/27 06:24:31;;;;;;;16.15;4.40;;;;;;;10.25;100.00;99536.34;6092748;23;20030;-94
2023/12/27 06:26:56;;;;;;;17.42;4.53;;;;;;;10.31;100.00;99529.97;6092626;23;20030;-93
2023/12/27 06:29:21;;;;;;;31.13;4.90;;;;;;;10.37;100.00;99529.53;6091313;23;19998;-92
2023/12/27 06:31:47;;;;;;;18.52;4.97;;;;;;;10.36;100.00;99527.88;6092730;23;20034;-92
2023/12/27 06:34:12;;;;;;;15.90;6.35;;;;;;;10.37;100.00;99504.56;6092124;23;20006;-93
2023/12/27 06:36:39;;;;;;;22.58;4.28;;;;;;;10.44;100.00;99528.19;6092475;23;20013;-92
2023/12/27 06:39:06;;;;;;;17.17;3.40;;;;;;;10.38;100.00;99513.13;6092652;23;20544;-92
2023/12/27 06:41:32;;;;;;;19.02;4.30;;;;;;;10.41;100.00;99520.63;6091930;23;20010;-92
2023/12/27 06:43:57;;;;;;;23.38;5.07;;;;;;;10.45;100.00;99520.31;6092379;23;20429;-92
2023/12/27 06:46:23;;;;;;;21.23;3.78;;;;;;;10.47;100.00;99507.31;6092327;23;20085;-91
2023/12/27 06:48:48;;;;;;;19.85;4.15;;;;;;;10.46;100.00;99503.06;6092411;23;20007;-93
2023/12/27 06:51:13;;;;;;;24.05;3.45;;;;;;;10.49;100.00;99500.28;6092439;23;20421;-93
2023/12/27 06:53:39;;;;;;;12.60;3.55;;;;;;;10.56;100.00;99503.22;6092475;23;20445;-91
2023/12/27 06:56:04;;;;;;;17.25;3.65;;;;;;;10.54;100.00;99502.53;6092514;23;20003;-92
2023/12/27 06:58:30;;;;;;;17.67;3.67;;;;;;;10.56;100.00;99493.75;6092924;23;20006;-92
2023/12/27 07:00:55;;;;;;;23.42;4.75;;;;;;;10.60;100.00;99490.00;6092511;23;20338;-91
2023/12/27 07:03:20;;;;;;;17.02;4.35;;;;;;;10.61;100.00;99476.19;6092271;23;20410;-92
2023/12/27 07:05:46;;;;;;;18.08;3.83;;;;;;;10.62;100.00;99475.22;6090864;23;20089;-91
2023/12/27 07:08:11;;;;;;;17.92;3.80;;;;;;;10.67;100.00;99460.22;6092027;23;19998;-92
2023/12/27 07:10:36;;;;;;;26.45;4.35;;;;;;;10.68;100.00;99459.31;6092940;23;20075;-91
2023/12/27 07:13:02;;;;;;;17.85;4.18;;;;;;;10.76;100.00;99450.19;6092665;23;20003;-92
2023/12/27 07:15:28;;;;;;;14.52;3.67;;;;;;;10.73;100.00;99446.06;6092327;23;20044;-92
2023/12/27 07:17:54;;;;;;;23.75;3.83;;;;;;;10.76;100.00;99453.56;6090345;23;20490;-92
2023/12/27 07:20:21;;;;;;;18.67;3.42;;;;;;;10.79;100.00;99444.78;6092324;23;20030;-93
2023/12/27 07:22:47;;;;;;;20.55;3.90;;;;;;;10.74;100.00;99446.88;6091245;23;20333;-92
2023/12/27 07:25:12;;;;;;;20.73;4.70;;;;;;;10.76;100.00;99435.50;6090935;23;20342;-92
2023/12/27 07:27:37;;;;;;;17.98;4.18;;;;;;;10.74;100.00;99432.22;6092318;23;20002;-93
2023/12/27 07:30:04;;;;;;;19.98;4.97;;;;;;;10.77;100.00;99442.31;6090699;23;20006;-92
2023/12/27 07:32:30;;;;;;;11.43;3.50;;;;;;;10.83;100.00;99446.22;6092482;23;20440;-93
2023/12/27 07:34:57;;;;;;;16.50;3.90;;;;;;;10.78;100.00;99415.56;6092753;23;20006;-92
2023/12/27 07:37:26;;;;;;;12.25;3.78;;;;;;;10.76;100.00;99425.19;6090660;23;20010;-92
2023/12/27 07:39:52;;;;;;;15.50;3.47;;;;;;;10.75;100.00;99423.53;6092243;23;20007;-93
2023/12/27 07:42:18;;;;;;;9.88;3.40;;;;;;;10.73;100.00;99419.41;6092105;23;20006;-92
2023/12/27 07:44:43;;;;;;;17.40;3.08;;;;;;;10.69;100.00;99406.75;6092371;23;20006;-92
2023/12/27 07:47:08;;;;;;;15.27;2.92;;;;;;;10.70;100.00;99407.56;6092486;23;20052;-92
2023/12/27 07:49:35;;;;;;;13.15;4.10;;;;;;;10.70;100.00;99413.56;6092217;23;20424;-92
2023/12/27 07:52:00;;;;;;;16.45;3.28;;;;;;;10.67;100.00;99408.63;6092279;23;20396;-92
2023/12/27 07:54:25;;;;;;;16.15;3.28;;;;;;;10.68;100.00;99418.03;6092540;23;20030;-92
2023/12/27 07:56:51;;;;;;;7.57;2.22;;;;;;;10.71;100.00;99404.88;6092118;23;20572;-92
2023/12/27 07:59:17;;;;;;;14.80;2.92;;;;;;;10.71;100.00;99396.31;6092351;23;20302;-92
2023/12/27 08:01:43;;;;;;;7.75;2.63;;;;;;;10.74;100.00;99414.16;6092098;23;20003;-92
2023/12/27 08:04:09;;;;;;;13.40;3.35;;;;;;;10.77;100.00;99415.69;6091842;23;20013;-92
2023/12/27 08:06:34;;;;;;;9.65;3.13;;;;;;;10.77;100.00;99415.69;6092063;23;20006;-92
2023/12/27 08:09:00;;;;;;;7.40;2.22;;;;;;;10.73;100.00;99401.34;6092057;23;20443;-91
2023/12/27 08:11:25;;;;;;;6.15;3.20;;;;;;;10.75;100.00;99417.53;6092088;23;20002;-91
2023/12/27 08:13:50;;;;;;;10.23;2.38;;;;;;;10.77;100.00;99411.34;6092199;23;20049;-92
2023/12/27 08:16:16;;;;;;;10.30;2.30;;;;;;;10.83;100.00;99415.22;6090612;23;20038;-93
2023/12/27 08:18:41;;;;;;;7.25;2.45;;;;;;;10.76;100.00;99401.16;6091016;23;20003;-92
2023/12/27 08:21:07;;;;;;;7.45;2.30;;;;;;;10.71;100.00;99381.66;6091351;23;20011;-92
2023/12/27 08:23:32;;;;;;;5.32;2.30;;;;;;;10.68;100.00;99410.28;6090866;23;20011;-92
2023/12/27 08:25:58;;;;;;;11.80;2.13;;;;;;;10.69;100.00;99386.09;6091752;23;20014;-92
2023/12/27 08:28:23;;;;;;;6.78;2.20;;;;;;;10.69;100.00;99390.44;6090462;23;20006;-92
2023/12/27 08:30:49;;;;;;;7.20;1.90;;;;;;;10.74;100.00;99379.78;6090228;23;20418;-91
2023/12/27 08:33:15;;;;;;;3.90;1.95;;;;;;;10.63;100.00;99376.25;6091571;23;20014;-92
2023/12/27 08:35:40;;;;;;;7.50;1.98;;;;;;;10.63;100.00;99384.00;6090195;23;20422;-92
2023/12/27 08:38:06;;;;;;;12.55;2.20;;;;;;;10.64;100.00;99389.97;6090294;23;20065;-93
2023/12/27 08:40:31;;;;;;;4.93;2.00;;;;;;;10.66;100.00;99388.91;6090575;23;20014;-93
2023/12/27 08:43:00;;;;;;;4.60;1.80;;;;;;;10.66;100.00;99401.81;6090398;23;20196;-92
2023/12/27 08:45:25;;;;;;;7.05;1.83;;;;;;;10.66;100.00;99399.25;6090491;23;20013;-93
2023/12/27 08:47:50;;;;;;;6.70;2.42;;;;;;;10.62;100.00;99382.34;6091886;23;20003;-92
2023/12/27 08:50:16;;;;;;;8.75;2.17;;;;;;;10.67;100.00;99395.72;6092022;23;20029;-92
2023/12/27 08:52:42;;;;;;;5.15;2.03;;;;;;;10.64;100.00;99390.78;6090636;23;20006;-94
2023/12/27 08:55:10;;;;;;;8.30;2.22;;;;;;;10.65;100.00;99381.28;6090593;23;20007;-94
2023/12/27 08:57:36;;;;;;;7.15;2.80;;;;;;;10.63;100.00;99384.00;6090611;23;20245;-93
2023/12/27 09:00:01;;;;;;;10.05;2.50;;;;;;;10.66;100.00;99367.47;6090893;23;20271;-93
2023/12/27 09:02:27;;;;;;;10.05;2.80;;;;;;;10.64;100.00;99371.91;6091943;23;20006;-94
2023/12/27 09:04:53;;;;;;;13.10;2.70;;;;;;;10.64;100.00;99377.06;6090477;23;20003;-93
2023/12/27 09:07:18;;;;;;;9.15;2.35;;;;;;;10.63;100.00;99368.50;6092372;23;20433;-94
2023/12/27 09:09:43;;;;;;;14.55;2.80;;;;;;;10.69;100.00;99362.88;6092325;23;20082;-93
2023/12/27 09:12:09;;;;;;;12.70;3.47;;;;;;;10.65;100.00;99348.53;6092073;23;20331;-94
2023/12/27 09:14:38;;;;;;;14.20;3.53;;;;;;;10.63;100.00;99345.28;6090753;23;20319;-94
2023/12/27 09:17:04;;;;;;;10.80;3.30;;;;;;;10.64;100.00;99344.34;6090605;23;20015;-94
2023/12/27 09:19:29;;;;;;;13.45;4.32;;;;;;;10.67;100.00;99326.03;6090955;23;20062;-93
2023/12/27 09:21:55;;;;;;;15.20;3.63;;;;;;;10.68;100.00;99325.13;6090886;23;20060;-94
2023/12/27 09:24:20;;;;;;;18.63;4.00;;;;;;;10.69;100.00;99321.59;6090574;23;20007;-94
2023/12/27 09:26:48;;;;;;;22.48;3.75;;;;;;;10.66;100.00;99336.50;6091117;23;20337;-94
2023/12/27 09:29:13;;;;;;;24.20;5.40;;;;;;;10.66;100.00;99311.50;6090642;23;20009;-95
2023/12/27 09:31:38;;;;;;;18.23;3.97;;;;;;;10.67;100.00;99323.44;6091290;23;20101;-95
2023/12/27 09:34:04;;;;;;;14.18;5.15;;;;;;;10.67;100.00;99315.72;6092319;23;20009;-95
2023/12/27 09:36:29;;;;;;;22.83;3.90;;;;;;;10.70;100.00;99306.91;6092274;23;20025;-96
2023/12/27 09:38:54;;;;;;;15.43;4.35;;;;;;;10.65;100.00;99298.69;6092624;23;20077;-95
2023/12/27 09:41:20;;;;;;;20.95;3.33;;;;;;;10.64;100.00;99292.72;6092960;23;20455;-95
2023/12/27 09:43:47;;;;;;;22.02;3.85;;;;;;;10.65;100.00;99289.19;6093491;23;20038;-96
2023/12/27 09:46:17;;;;;;;8.40;2.90;;;;;;;10.66;100.00;99290.03;6093022;23;20014;-96
2023/12/27 09:48:45;;;;;;;15.68;5.15;;;;;;;10.67;100.00;99286.50;6092796;23;20002;-95
2023/12/27 09:51:13;;;;;;;19.98;3.63;;;;;;;10.63;100.00;99270.47;6092166;23;20012;-95
2023/12/27 09:53:40;;;;;;;14.98;3.40;;;;;;;10.66;100.00;99283.13;6092775;23;20007;-95
2023/12/27 09:56:07;;;;;;;9.85;3.05;;;;;;;10.71;100.00;99277.59;6092282;23;20066;-95
2023/12/27 09:58:36;;;;;;;10.55;2.53;;;;;;;10.70;100.00;99251.00;6092362;23;20006;-95
2023/12/27 10:01:02;;;;;;;13.38;2.65;;;;;;;10.74;100.00;99255.91;6092464;23;20033;-94
2023/12/27 10:03:35;;;;;;;8.52;2.92;;;;;;;10.73;100.00;99259.41;6092236;23;20014;-94
2023/12/27 10:06:15;;;;;;;16.38;2.97;;;;;;;10.70;100.00;99263.88;6092186;23;20037;-95
2023/12/27 10:08:40;;;;;;;16.73;2.70;;;;;;;10.79;100.00;99256.38;6092053;23;20010;-95
2023/12/27 10:11:08;;;;;;;17.00;3.05;;;;;;;10.79;100.00;99269.28;6092390;23;20009;-94
2023/12/27 10:13:37;;;;;;;10.38;2.15;;;;;;;10.78;100.00;99240.06;6092035;23;20097;-94
2023/12/27 10:16:04;;;;;;;12.50;2.20;;;;;;;10.75;100.00;99242.88;6091501;23;20124;-94
2023/12/27 10:18:30;;;;;;;11.88;2.15;;;;;;;10.76;100.00;99239.34;6091371;23;20137;-93
2023/12/27 10:20:56;;;;;;;9.30;3.28;;;;;;;10.74;100.00;99253.31;6092141;23;20003;-93
2023/12/27 10:23:22;;;;;;;6.72;1.67;;;;;;;10.76;100.00;99260.00;6091926;23;20002;-93
2023/12/27 10:25:47;;;;;;;9.95;3.85;;;;;;;10.83;100.00;99242.28;6091634;23;20368;-94
2023/12/27 10:28:12;;;;;;;12.52;3.08;;;;;;;10.84;100.00;99246.50;6091307;23;20060;-94
2023/12/27 10:30:38;;;;;;;10.60;2.05;;;;;;;10.85;100.00;99237.81;6091403;23;20010;-93
2023/12/27 10:33:04;;;;;;;11.70;2.92;;;;;;;10.82;100.00;99232.91;6091486;23;20436;-93
2023/12/27 10:35:31;;;;;;;12.55;3.03;;;;;;;10.83;100.00;99234.56;6091310;23;20422;-93
2023/12/27 10:38:01;;;;;;;10.93;3.10;;;;;;;10.92;100.00;99213.16;6091045;23;20341;-94
2023/12/27 10:40:27;;;;;;;11.30;3.47;;;;;;;10.86;100.00;99204.16;6091527;23;20334;-93
2023/12/27 10:42:53;;;;;;;19.27;3.75;;;;;;;10.92;100.00;99195.09;6091309;23;20013;-94
2023/12/27 10:45:20;;;;;;;20.10;4.18;;;;;;;10.95;100.00;99181.97;6092490;23;20010;-93
2023/12/27 10:47:48;;;;;;;27.75;4.70;;;;;;;10.94;100.00;99182.88;6092677;23;20064;-93
2023/12/27 10:50:19;;;;;;;18.75;3.53;;;;;;;11.01;100.00;99176.28;6091518;23;20075;-93
2023/12/27 10:52:49;;;;;;;23.35;4.30;;;;;;;10.91;100.00;99189.09;6091033;23;20029;-93
2023/12/27 10:55:18;;;;;;;29.88;4.22;;;;;;;11.03;100.00;99153.75;6090980;23;20006;-93
2023/12/27 10:57:50;;;;;;;19.10;3.88;;;;;;;11.01;100.00;99157.41;6092583;23;20422;-93
2023/12/27 11:00:16;;;;;;;23.40;5.07;;;;;;;11.01;100.00;99135.00;6091019;23;20006;-93
2023/12/27 11:02:42;;;;;;;18.65;4.35;;;;;;;11.01;100.00;99132.41;6092912;23;20003;-94
2023/12/27 11:05:08;;;;;;;19.48;4.90;;;;;;;11.02;100.00;99146.97;6091904;23;20056;-95
2023/12/27 11:07:40;;;;;;;21.92;4.13;;;;;;;11.11;100.00;99151.38;6091810;23;20097;-94
2023/12/27 11:10:06;;;;;;;;;;;;;;;11.07;100.00;99144.84;6091972;23;20013;-94
2023/12/27 11:12:34;;;;;;;28.95;4.82;;;;;;;11.02;100.00;99131.47;6092382;23;19944;-93
2023/12/27 11:15:02;;;;;;;19.85;4.75;;;;;;;10.97;100.00;99112.13;6092294;23;20003;-93